Time;durP1;ratioP1;P1;durP2;ratioP2;P2;SDS_P1;SDS_P2;PMS_P1;PMS_P2;Temp;Humidity;BMP_temperature;BMP_pressure;BME280_temperature;BME280_humidity;BME280_pressure;Samples;Min_cycle;Max_cycle;Signal;HPM_P1;HPM_P2
2022/10/16 00:02:55;;;;;;;23.30;15.72;;;;;;;13.38;71.92;99011.93;2145995;83;20993;-81
2022/10/16 00:05:55;;;;;;;21.50;16.27;;;;;;;13.36;72.07;99014.11;2142626;83;21001;-82
2022/10/16 00:08:55;;;;;;;19.45;16.57;;;;;;;13.33;72.17;99014.97;2143038;83;20990;-82
2022/10/16 00:11:56;;;;;;;24.20;15.83;;;;;;;13.31;72.19;99018.45;2142871;83;20949;-81
2022/10/16 00:14:56;;;;;;;23.92;15.75;;;;;;;13.28;72.33;99019.32;2142711;83;20977;-81
2022/10/16 00:20:59;;;;;;;22.27;15.43;;;;;;;13.22;72.64;99032.41;2141474;83;20958;-81
2022/10/16 00:23:59;;;;;;;20.50;15.78;;;;;;;13.22;72.82;99036.34;2142994;83;21350;-81
2022/10/16 00:27:00;;;;;;;24.02;16.75;;;;;;;13.19;73.01;99035.02;2143630;83;20970;-81
2022/10/16 00:30:00;;;;;;;25.15;14.53;;;;;;;13.19;73.16;99041.56;2143693;83;20965;-80
2022/10/16 00:33:00;;;;;;;24.02;16.93;;;;;;;13.22;73.19;99045.95;2143964;83;20966;-80
2022/10/16 00:36:01;;;;;;;25.88;18.35;;;;;;;13.23;73.30;99044.64;2143126;83;21460;-80
2022/10/16 00:39:01;;;;;;;21.55;16.17;;;;;;;13.27;73.42;99050.34;2143687;83;20934;-81
2022/10/16 00:42:02;;;;;;;26.25;16.07;;;;;;;13.29;73.49;99052.97;2143643;83;20937;-81
2022/10/16 00:45:02;;;;;;;24.98;15.23;;;;;;;13.31;73.51;99047.30;2143865;83;20997;-81
2022/10/16 00:48:02;;;;;;;22.05;15.30;;;;;;;13.32;73.71;99046.42;2143799;83;21058;-82
2022/10/16 00:51:03;;;;;;;19.82;15.13;;;;;;;13.33;73.71;99043.81;2143672;83;20961;-81
2022/10/16 00:54:04;;;;;;;19.75;15.15;;;;;;;13.33;73.70;99040.31;2143566;83;21409;-81
2022/10/16 00:57:04;;;;;;;25.08;16.50;;;;;;;13.34;73.76;99042.06;2143883;83;20938;-81
2022/10/16 01:00:05;;;;;;;20.92;16.07;;;;;;;13.34;73.85;99036.39;2144110;83;20981;-82
2022/10/16 01:03:05;;;;;;;23.02;16.77;;;;;;;13.36;73.84;99032.02;2143728;83;21010;-81
2022/10/16 01:06:07;;;;;;;21.73;16.52;;;;;;;13.36;73.97;99038.58;2143547;83;20989;-81
2022/10/16 01:09:06;;;;;;;17.95;15.20;;;;;;;13.38;74.02;99035.96;2143766;83;20989;-81
2022/10/16 01:12:06;;;;;;;20.48;14.95;;;;;;;13.38;74.06;99042.08;2143899;83;21370;-81
2022/10/16 01:15:07;;;;;;;18.23;14.83;;;;;;;13.39;74.09;99045.58;2143674;83;21017;-80
2022/10/16 01:18:07;;;;;;;23.32;16.67;;;;;;;13.39;74.12;99048.20;2143683;83;20934;-81
2022/10/16 01:21:07;;;;;;;23.00;15.63;;;;;;;13.39;74.12;99050.83;2143585;83;20985;-81
2022/10/16 01:24:08;;;;;;;19.35;15.72;;;;;;;13.39;74.17;99052.13;2143908;83;20938;-80
2022/10/16 01:27:08;;;;;;;30.60;17.57;;;;;;;13.39;74.24;99053.01;2143674;83;20993;-81
2022/10/16 01:30:09;;;;;;;19.50;15.80;;;;;;;13.39;74.30;99051.70;2143748;83;20973;-80
2022/10/16 01:33:09;;;;;;;22.60;15.38;;;;;;;13.40;74.42;99049.95;2143689;83;20968;-80
2022/10/16 01:36:09;;;;;;;21.12;15.48;;;;;;;13.41;74.30;99056.07;2143798;83;21400;-80
2022/10/16 01:39:10;;;;;;;19.82;15.58;;;;;;;13.41;74.32;99053.02;2143700;83;20961;-80
2022/10/16 01:42:10;;;;;;;21.33;15.88;;;;;;;13.44;74.38;99054.77;2144019;83;20961;-81
2022/10/16 01:45:11;;;;;;;20.17;15.28;;;;;;;13.44;74.32;99063.95;2143865;83;21401;-80
2022/10/16 01:48:11;;;;;;;18.82;15.10;;;;;;;13.45;74.37;99059.15;2143661;83;20922;-80
2022/10/16 01:51:11;;;;;;;22.45;14.98;;;;;;;13.44;74.52;99057.39;2143755;83;20934;-81
2022/10/16 01:54:12;;;;;;;20.90;14.63;;;;;;;13.43;74.64;99062.20;2143736;83;20898;-81
2022/10/16 01:57:12;;;;;;;20.48;16.27;;;;;;;13.41;74.62;99064.81;2143460;83;20985;-81
2022/10/16 02:00:13;;;;;;;21.02;15.80;;;;;;;13.41;74.83;99055.64;2143353;83;20974;-80
2022/10/16 02:03:13;;;;;;;22.75;15.58;;;;;;;13.38;75.03;99055.19;2143806;83;20930;-82
2022/10/16 02:06:14;;;;;;;22.50;15.85;;;;;;;13.32;75.11;99056.91;2143438;83;21401;-80
2022/10/16 02:09:16;;;;;;;22.40;16.95;;;;;;;13.26;75.21;99064.31;2143651;83;20985;-81
2022/10/16 02:12:14;;;;;;;19.57;16.00;;;;;;;13.19;75.40;99062.53;2143799;83;20954;-80
2022/10/16 02:15:15;;;;;;;21.57;15.20;;;;;;;13.09;75.61;99060.70;2143760;83;21018;-81
2022/10/16 02:18:15;;;;;;;19.95;14.45;;;;;;;12.96;76.21;99066.28;2143306;83;20982;-80
2022/10/16 02:21:16;;;;;;;18.85;13.80;;;;;;;12.84;76.74;99066.20;2143696;83;20969;-81
2022/10/16 02:24:16;;;;;;;20.82;14.43;;;;;;;12.66;77.24;99066.09;2143431;83;21029;-81
2022/10/16 02:27:16;;;;;;;24.20;16.05;;;;;;;12.42;77.80;99065.04;2143365;83;21791;-80
2022/10/16 02:30:17;;;;;;;22.85;15.10;;;;;;;12.24;78.46;99067.50;2143767;83;20997;-81
2022/10/16 02:33:17;;;;;;;23.15;14.30;;;;;;;12.05;79.23;99069.05;2143741;83;20973;-81
2022/10/16 02:36:17;;;;;;;20.70;15.13;;;;;;;11.90;79.64;99066.28;2143078;83;21433;-81
2022/10/16 02:39:18;;;;;;;22.60;14.15;;;;;;;11.74;79.95;99065.64;2143758;83;20993;-81
2022/10/16 02:42:18;;;;;;;21.65;14.40;;;;;;;11.59;80.37;99073.32;2143728;83;20981;-81
2022/10/16 02:45:19;;;;;;;23.18;14.35;;;;;;;11.44;80.91;99076.20;2143323;83;21000;-81
2022/10/16 02:48:19;;;;;;;19.00;14.05;;;;;;;11.33;81.35;99079.55;2143442;83;20941;-80
2022/10/16 02:51:19;;;;;;;19.85;14.58;;;;;;;11.27;82.17;99087.27;2143955;83;20970;-81
2022/10/16 02:54:20;;;;;;;18.52;15.00;;;;;;;11.19;82.29;99087.17;2143935;83;21014;-81
2022/10/16 02:57:20;;;;;;;20.35;13.78;;;;;;;11.06;82.32;99082.64;2143746;83;20967;-81
2022/10/16 03:00:21;;;;;;;27.32;14.85;;;;;;;10.93;82.67;99076.80;2143490;82;20938;-81
2022/10/16 03:03:21;;;;;;;22.53;14.00;;;;;;;10.83;83.32;99082.32;2143762;83;21382;-81
2022/10/16 03:06:22;;;;;;;27.35;15.25;;;;;;;10.77;83.69;99086.15;2143599;83;21001;-80
2022/10/16 03:09:22;;;;;;;18.33;14.27;;;;;;;10.65;83.62;99085.54;2143292;83;20949;-84
2022/10/16 03:12:22;;;;;;;16.97;15.13;;;;;;;10.56;84.19;99085.40;2142968;83;21430;-81
2022/10/16 03:15:23;;;;;;;23.37;14.17;;;;;;;10.52;84.52;99088.39;2142915;83;20933;-81
2022/10/16 03:18:23;;;;;;;19.07;14.70;;;;;;;10.46;84.58;99092.63;2142792;83;20941;-81
2022/10/16 03:21:24;;;;;;;21.17;14.77;;;;;;;10.36;84.48;99091.99;2143237;83;21337;-82
2022/10/16 03:24:24;;;;;;;21.43;14.37;;;;;;;10.27;84.69;99094.02;2143303;83;20938;-80
2022/10/16 03:27:25;;;;;;;23.10;15.37;;;;;;;10.23;84.89;99096.55;2143639;83;20977;-80
2022/10/16 03:30:25;;;;;;;21.27;15.30;;;;;;;10.20;85.16;99102.17;2143457;83;21382;-81
2022/10/16 03:33:25;;;;;;;22.83;15.77;;;;;;;10.21;85.69;99096.10;2143348;83;20922;-81
2022/10/16 03:36:26;;;;;;;23.07;15.57;;;;;;;10.18;85.84;99101.23;2143378;83;21029;-82
2022/10/16 03:39:27;;;;;;;28.73;16.17;;;;;;;10.12;86.28;99103.73;2143906;83;21001;-81
2022/10/16 03:42:26;;;;;;;27.77;17.20;;;;;;;10.10;86.66;99112.39;2143803;83;21445;-80
2022/10/16 03:45:27;;;;;;;20.17;16.07;;;;;;;10.08;87.07;99111.48;2143632;83;20966;-80
2022/10/16 03:48:27;;;;;;;22.03;15.67;;;;;;;10.09;87.61;99109.33;2143515;83;20974;-81
2022/10/16 03:51:28;;;;;;;19.87;15.30;;;;;;;10.11;87.89;99117.63;2143961;83;21005;-81
2022/10/16 03:54:28;;;;;;;20.93;16.30;;;;;;;10.13;88.11;99115.05;2143703;83;21417;-80
2022/10/16 03:57:28;;;;;;;25.03;15.33;;;;;;;10.15;88.21;99123.36;2143688;83;20906;-81
2022/10/16 04:00:31;;;;;;;22.53;14.60;;;;;;;10.20;88.49;99126.95;2143786;83;20925;-81
2022/10/16 04:03:32;;;;;;;29.43;16.47;;;;;;;10.25;88.73;99123.55;2143723;83;21325;-82
2022/10/16 04:06:32;;;;;;;27.20;15.37;;;;;;;10.27;88.55;99125.76;2142634;83;21017;-81
2022/10/16 04:09:32;;;;;;;23.67;14.90;;;;;;;10.27;88.62;99129.67;2143243;83;20974;-82
2022/10/16 04:12:33;;;;;;;25.03;15.47;;;;;;;10.28;88.93;99132.73;2143007;83;21692;-81
2022/10/16 04:15:33;;;;;;;26.83;15.20;;;;;;;10.24;89.03;99133.11;2142914;83;21278;-82
2022/10/16 04:18:35;;;;;;;24.90;17.03;;;;;;;10.23;89.53;99138.30;2143456;83;20962;-82
2022/10/16 04:21:34;;;;;;;22.93;16.13;;;;;;;10.24;89.94;99139.63;2143738;83;20958;-82
2022/10/16 04:24:34;;;;;;;23.73;15.70;;;;;;;10.27;89.92;99141.41;2143638;83;21017;-82
2022/10/16 04:27:35;;;;;;;23.23;15.40;;;;;;;10.28;89.84;99141.86;2143804;83;20945;-82
2022/10/16 04:30:35;;;;;;;22.13;15.67;;;;;;;10.25;89.74;99147.03;2143784;83;20966;-82
2022/10/16 04:33:36;;;;;;;24.33;15.83;;;;;;;10.20;89.57;99143.91;2143615;83;21364;-82
2022/10/16 04:36:36;;;;;;;21.43;15.83;;;;;;;10.16;89.68;99135.97;2143875;83;20986;-82
2022/10/16 04:39:37;;;;;;;21.73;16.03;;;;;;;10.14;90.01;99137.25;2143867;83;20914;-82
2022/10/16 04:42:37;;;;;;;21.43;16.83;;;;;;;10.09;90.03;99133.67;2143846;83;21013;-82
2022/10/16 04:45:37;;;;;;;26.17;17.43;;;;;;;10.06;90.06;99139.27;2144598;83;21405;-82
2022/10/16 04:48:38;;;;;;;41.97;18.50;;;;;;;10.05;90.53;99143.60;2144376;83;21009;-82
2022/10/16 04:51:38;;;;;;;29.30;21.00;;;;;;;10.06;91.01;99137.95;2144585;83;20998;-82
2022/10/16 04:54:39;;;;;;;34.07;21.27;;;;;;;10.08;91.52;99143.66;2144341;83;20957;-83
2022/10/16 04:57:39;;;;;;;56.27;21.00;;;;;;;10.11;91.47;99141.11;2144403;83;20961;-83
2022/10/16 05:00:42;;;;;;;33.27;18.90;;;;;;;10.17;91.83;99142.52;2144347;83;20966;-82
2022/10/16 05:03:42;;;;;;;32.63;19.97;;;;;;;10.20;91.45;99151.73;2144736;83;20938;-82
2022/10/16 05:06:43;;;;;;;30.17;19.17;;;;;;;10.18;91.29;99148.19;2144035;83;21071;-83
2022/10/16 05:09:43;;;;;;;27.10;18.70;;;;;;;10.19;91.13;99151.25;2144295;83;20977;-83
2022/10/16 05:12:44;;;;;;;29.40;17.83;;;;;;;10.17;90.67;99157.30;2143665;82;20985;-83
2022/10/16 05:15:44;;;;;;;23.50;16.23;;;;;;;10.10;90.67;99152.39;2142988;83;21389;-83
2022/10/16 05:18:44;;;;;;;26.43;17.77;;;;;;;10.09;90.36;99149.75;2142529;83;20921;-83
2022/10/16 05:21:45;;;;;;;23.40;19.23;;;;;;;10.07;90.89;99144.51;2142538;83;20941;-83
2022/10/16 05:24:45;;;;;;;25.67;20.07;;;;;;;10.07;91.15;99143.20;2142479;83;21322;-83
2022/10/16 05:27:46;;;;;;;24.77;18.83;;;;;;;10.09;91.42;99148.02;2142361;83;20949;-83
2022/10/16 05:30:46;;;;;;;32.00;21.60;;;;;;;10.13;91.28;99156.78;2142691;83;20974;-83
2022/10/16 05:33:46;;;;;;;32.97;21.57;;;;;;;10.19;91.79;99156.47;2142973;83;20997;-83
2022/10/16 05:36:47;;;;;;;29.70;19.83;;;;;;;10.32;91.85;99156.72;2142995;83;21329;-82
2022/10/16 05:39:47;;;;;;;30.77;20.57;;;;;;;10.38;91.42;99151.19;2143527;83;21005;-83
2022/10/16 05:42:48;;;;;;;31.70;19.90;;;;;;;10.43;91.54;99153.91;2144206;83;20934;-82
2022/10/16 05:45:48;;;;;;;24.57;19.33;;;;;;;10.49;91.36;99157.50;2143820;83;21048;-82
2022/10/16 05:48:49;;;;;;;27.57;20.10;;;;;;;10.58;91.43;99154.17;2144007;83;21009;-83
2022/10/16 05:51:49;;;;;;;26.20;19.70;;;;;;;10.72;91.51;99155.70;2144198;83;21006;-82
2022/10/16 05:54:49;;;;;;;28.27;18.57;;;;;;;10.89;91.32;99150.31;2144157;83;21362;-83
2022/10/16 05:57:50;;;;;;;27.47;18.50;;;;;;;11.07;90.97;99156.23;2143995;83;20965;-83
2022/10/16 06:00:50;;;;;;;28.67;17.93;;;;;;;11.24;90.68;99163.02;2144065;83;20918;-82
2022/10/16 06:03:51;;;;;;;28.50;18.57;;;;;;;11.42;90.42;99160.26;2144055;83;21314;-83
2022/10/16 06:06:51;;;;;;;23.67;19.52;;;;;;;11.59;90.04;99160.91;2115613;83;21064;-84
2022/10/16 06:09:52;;;;;;;24.85;18.32;;;;;;;11.82;89.92;99171.25;2102832;85;20921;-83
2022/10/16 06:12:52;;;;;;;26.27;17.65;;;;;;;12.07;89.48;99182.45;2102361;85;21388;-84
2022/10/16 06:15:52;;;;;;;24.63;18.35;;;;;;;12.32;89.08;99189.28;2102054;85;21000;-83
2022/10/16 06:18:53;;;;;;;22.17;17.67;;;;;;;12.55;88.59;99194.75;2102423;85;20964;-83
2022/10/16 06:21:53;;;;;;;24.12;19.05;;;;;;;12.71;87.85;99209.30;2102672;85;21340;-83
2022/10/16 06:24:53;;;;;;;24.92;17.37;;;;;;;12.83;87.20;99215.09;2102686;85;20988;-84
2022/10/16 06:27:54;;;;;;;22.85;17.00;;;;;;;12.95;86.67;99218.24;2102471;85;20986;-84
2022/10/16 06:30:54;;;;;;;20.95;17.05;;;;;;;13.05;86.38;99224.03;2102797;85;20984;-84
2022/10/16 06:33:55;;;;;;;21.87;17.62;;;;;;;13.17;85.41;99218.92;2102618;85;21340;-84
2022/10/16 06:36:55;;;;;;;19.55;16.50;;;;;;;13.26;85.16;99225.54;2102609;85;21047;-84
2022/10/16 06:39:55;;;;;;;24.80;17.00;;;;;;;13.35;84.84;99229.53;2102908;85;20952;-83
2022/10/16 06:42:56;;;;;;;27.75;17.35;;;;;;;13.45;84.53;99230.91;2102474;85;21313;-83
2022/10/16 06:45:56;;;;;;;19.90;16.62;;;;;;;13.51;83.90;99236.19;2102824;85;20944;-84
2022/10/16 06:48:57;;;;;;;22.70;17.55;;;;;;;13.61;83.68;99231.44;2078448;85;21915;-84
2022/10/16 06:51:58;;;;;;;22.93;16.60;;;;;;;13.69;83.28;99238.92;2102639;85;20992;-83
2022/10/16 06:54:58;;;;;;;24.92;15.32;;;;;;;13.79;82.86;99245.97;2102797;85;20944;-84
2022/10/16 06:57:59;;;;;;;19.73;15.28;;;;;;;13.89;82.43;99237.74;2102661;85;20953;-83
2022/10/16 07:00:59;;;;;;;25.65;16.25;;;;;;;14.02;82.38;99244.80;2102227;85;21020;-84
2022/10/16 07:04:00;;;;;;;18.20;15.55;;;;;;;14.16;81.65;99241.80;2102618;85;20984;-83
2022/10/16 07:07:00;;;;;;;22.82;16.17;;;;;;;14.31;80.85;99245.79;2122432;83;21058;-82
2022/10/16 07:10:00;;;;;;;18.02;14.45;;;;;;;14.43;80.59;99237.10;2133675;83;20934;-83
2022/10/16 07:13:01;;;;;;;16.05;14.38;;;;;;;14.62;80.67;99244.59;2133696;83;20961;-83
2022/10/16 07:16:01;;;;;;;16.07;13.78;;;;;;;14.80;79.85;99243.77;2133784;83;20989;-83
2022/10/16 07:19:01;;;;;;;18.23;12.90;;;;;;;14.96;79.19;99246.85;2133667;83;20969;-83
2022/10/16 07:22:02;;;;;;;19.67;15.35;;;;;;;15.18;78.59;99243.78;2133452;83;20990;-83
2022/10/16 07:25:02;;;;;;;18.20;13.90;;;;;;;15.37;78.13;99248.59;2133438;83;20986;-83
2022/10/16 07:28:03;;;;;;;15.68;13.45;;;;;;;15.52;77.02;99256.47;2133504;83;20981;-82
2022/10/16 07:31:04;;;;;;;18.82;13.60;;;;;;;15.67;76.79;99255.19;2133448;83;21354;-83
2022/10/16 07:34:03;;;;;;;16.57;13.45;;;;;;;15.88;76.74;99256.45;2133501;83;20930;-82
2022/10/16 07:37:04;;;;;;;17.67;13.43;;;;;;;16.06;75.47;99255.95;2133819;83;21002;-82
2022/10/16 07:40:04;;;;;;;16.97;15.18;;;;;;;16.16;74.71;99257.67;2133628;83;20966;-82
2022/10/16 07:43:05;;;;;;;22.58;15.25;;;;;;;16.21;74.55;99261.16;2133354;83;21332;-82
2022/10/16 07:46:05;;;;;;;23.05;14.38;;;;;;;16.29;73.90;99267.27;2133378;83;20978;-83
2022/10/16 07:49:06;;;;;;;15.53;13.90;;;;;;;16.34;73.84;99275.16;2133401;83;20990;-83
2022/10/16 07:52:06;;;;;;;21.60;14.28;;;;;;;16.47;73.61;99276.44;2133638;83;20994;-83
2022/10/16 07:55:06;;;;;;;18.87;14.20;;;;;;;16.56;73.09;99286.94;2133167;84;21380;-82
2022/10/16 07:58:07;;;;;;;17.55;13.58;;;;;;;16.67;72.85;99285.59;2133553;83;21302;-82
2022/10/16 08:01:07;;;;;;;16.00;12.98;;;;;;;16.78;72.65;99286.40;2133506;83;20954;-83
2022/10/16 08:04:08;;;;;;;17.37;13.25;;;;;;;16.92;72.26;99289.39;2133697;83;21002;-83
2022/10/16 08:07:08;;;;;;;18.73;14.38;;;;;;;17.00;71.80;99285.81;2113885;83;21060;-81
2022/10/16 08:10:08;;;;;;;18.27;13.80;;;;;;;17.10;71.98;99290.14;2102215;85;20960;-83
2022/10/16 08:13:09;;;;;;;16.05;12.60;;;;;;;17.14;71.90;99290.55;2102274;85;20957;-82
2022/10/16 08:16:09;;;;;;;19.40;13.58;;;;;;;17.23;71.50;99292.68;2102359;85;20980;-82
2022/10/16 08:19:10;;;;;;;15.83;12.47;;;;;;;17.29;71.38;99288.67;2102533;85;20972;-84
2022/10/16 08:22:10;;;;;;;18.15;12.50;;;;;;;17.32;70.21;99291.29;2102261;85;20971;-83
2022/10/16 08:25:10;;;;;;;14.55;12.80;;;;;;;17.39;70.45;99298.30;2102325;85;21008;-83
2022/10/16 08:28:11;;;;;;;17.95;12.23;;;;;;;17.49;70.10;99302.61;2102519;85;21011;-82
2022/10/16 08:31:11;;;;;;;15.13;12.55;;;;;;;17.59;69.52;99303.41;2102025;85;21369;-83
2022/10/16 08:34:12;;;;;;;17.50;12.03;;;;;;;17.62;68.36;99306.89;2101528;85;20909;-83
2022/10/16 08:37:13;;;;;;;15.63;12.70;;;;;;;17.68;68.55;99303.35;2102107;85;21011;-82
2022/10/16 08:40:12;;;;;;;17.82;11.73;;;;;;;17.81;67.77;99299.70;2102589;85;20996;-82
2022/10/16 08:43:13;;;;;;;14.83;11.33;;;;;;;17.88;67.70;99297.88;2102852;85;20989;-82
2022/10/16 08:46:13;;;;;;;13.62;11.03;;;;;;;17.94;67.61;99288.56;2102584;85;21000;-82
2022/10/16 08:49:14;;;;;;;12.95;10.80;;;;;;;18.10;66.69;99294.11;2102707;85;21060;-82
2022/10/16 08:52:14;;;;;;;12.37;10.58;;;;;;;18.18;66.25;99286.09;2102767;85;21445;-83
2022/10/16 08:55:14;;;;;;;14.38;10.55;;;;;;;18.33;66.08;99294.74;2102570;85;20952;-82
2022/10/16 08:58:15;;;;;;;12.73;9.75;;;;;;;18.50;66.24;99294.53;2102614;85;20964;-82
2022/10/16 09:01:15;;;;;;;12.43;11.05;;;;;;;18.67;65.79;99294.34;2102475;85;21364;-81
2022/10/16 09:04:16;;;;;;;12.58;10.82;;;;;;;18.75;63.82;99292.46;2102023;85;20984;-81
2022/10/16 09:07:16;;;;;;;14.05;10.70;;;;;;;18.75;63.02;99295.11;2126536;83;21014;-82
2022/10/16 09:10:16;;;;;;;12.10;10.55;;;;;;;18.82;63.26;99294.13;2144090;83;20942;-82
2022/10/16 09:13:17;;;;;;;11.45;10.03;;;;;;;18.93;62.75;99293.97;2143679;83;21347;-81
2022/10/16 09:16:17;;;;;;;13.60;9.90;;;;;;;18.96;61.90;99293.92;2143619;83;20990;-81
2022/10/16 09:19:18;;;;;;;12.88;10.25;;;;;;;18.98;62.48;99293.45;2143842;83;20946;-82
2022/10/16 09:22:18;;;;;;;12.95;9.95;;;;;;;19.05;61.92;99290.69;2143703;83;20938;-81
2022/10/16 09:25:19;;;;;;;12.50;10.68;;;;;;;19.20;61.26;99298.00;2145191;83;20982;-83
2022/10/16 09:28:19;;;;;;;13.30;9.58;;;;;;;19.33;61.29;99312.78;2145209;83;20953;-83
2022/10/16 09:31:19;;;;;;;14.47;9.88;;;;;;;19.50;60.86;99308.53;2145010;83;20930;-83
2022/10/16 09:34:20;;;;;;;12.53;9.90;;;;;;;19.67;60.93;99311.35;2144776;83;21022;-82
2022/10/16 09:37:20;;;;;;;13.85;9.10;;;;;;;19.85;60.78;99307.95;2144102;83;21326;-82
2022/10/16 09:40:20;;;;;;;10.85;9.68;;;;;;;20.04;60.38;99313.36;2144230;83;20994;-83
2022/10/16 09:43:21;;;;;;;9.98;8.80;;;;;;;20.24;59.87;99309.88;2144419;83;20959;-82
2022/10/16 09:46:21;;;;;;;15.28;9.83;;;;;;;20.40;59.23;99314.90;2144428;83;20985;-82
2022/10/16 09:49:22;;;;;;;12.70;9.80;;;;;;;20.43;58.06;99315.71;2144454;83;20990;-82
2022/10/16 09:52:22;;;;;;;12.28;9.55;;;;;;;20.21;57.96;99315.69;2144465;83;20970;-83
2022/10/16 09:55:23;;;;;;;13.35;9.95;;;;;;;20.22;58.24;99318.76;2144628;83;21383;-83
2022/10/16 09:58:24;;;;;;;11.85;9.83;;;;;;;20.35;58.74;99307.00;2144547;83;20959;-83
2022/10/16 10:01:23;;;;;;;13.28;9.70;;;;;;;20.37;58.54;99315.80;2144504;83;21022;-83
2022/10/16 10:04:28;;;;;;;14.28;9.83;;;;;;;20.40;58.23;99312.25;2144285;83;21014;-82
2022/10/16 10:07:28;;;;;;;11.90;9.18;;;;;;;20.51;57.58;99312.90;2144053;83;21071;-82
2022/10/16 10:10:28;;;;;;;10.13;9.10;;;;;;;20.61;57.45;99311.80;2143744;83;20958;-82
2022/10/16 10:13:29;;;;;;;11.08;9.45;;;;;;;20.58;58.55;99314.06;2143970;83;20989;-83
2022/10/16 10:16:29;;;;;;;10.00;9.00;;;;;;;20.63;58.64;99310.86;2144308;83;20981;-83
2022/10/16 10:19:29;;;;;;;11.90;8.90;;;;;;;20.64;58.00;99307.75;2144150;83;20954;-80
2022/10/16 10:22:30;;;;;;;11.18;9.23;;;;;;;20.68;57.68;99308.11;2144096;83;21022;-82
2022/10/16 10:25:30;;;;;;;10.98;8.88;;;;;;;20.70;58.33;99298.34;2143757;83;21020;-81
2022/10/16 10:28:31;;;;;;;11.60;8.80;;;;;;;20.77;57.92;99302.60;2143511;83;20961;-81
2022/10/16 10:31:31;;;;;;;11.63;8.90;;;;;;;20.87;57.30;99294.89;2143298;83;20951;-82
2022/10/16 10:34:32;;;;;;;10.75;8.53;;;;;;;20.95;57.64;99295.59;2143242;83;20938;-82
2022/10/16 10:37:32;;;;;;;19.70;10.58;;;;;;;21.10;57.10;99293.03;2143305;83;21052;-83
2022/10/16 10:40:32;;;;;;;19.82;10.28;;;;;;;21.20;62.53;99292.36;2143554;83;20962;-82
2022/10/16 10:43:33;;;;;;;16.17;10.38;;;;;;;21.98;59.80;99280.66;2143819;83;20942;-83
2022/10/16 10:46:33;;;;;;;16.45;8.45;;;;;;;22.44;57.05;99286.04;2144422;83;20990;-82
2022/10/16 10:49:34;;;;;;;12.47;7.67;;;;;;;22.61;55.47;99279.80;2144416;83;20926;-82
2022/10/16 10:52:34;;;;;;;12.55;6.70;;;;;;;22.72;54.02;99279.02;2144268;83;21037;-82
2022/10/16 10:55:34;;;;;;;8.60;6.53;;;;;;;22.81;53.43;99285.41;2144558;83;20914;-82
2022/10/16 10:58:35;;;;;;;8.65;7.00;;;;;;;22.84;53.02;99289.31;2144291;83;20989;-81
2022/10/16 11:01:35;;;;;;;10.68;6.90;;;;;;;22.88;53.34;99288.76;2144331;83;20962;-82
2022/10/16 11:04:36;;;;;;;7.97;6.83;;;;;;;22.98;53.36;99290.67;2144245;83;21033;-83
2022/10/16 11:07:36;;;;;;;11.43;7.55;;;;;;;23.18;53.15;99289.58;2121395;83;21047;-81
2022/10/16 11:10:36;;;;;;;13.30;8.70;;;;;;;23.30;51.46;99289.19;2102445;85;20976;-83
2022/10/16 11:13:37;;;;;;;9.20;7.22;;;;;;;23.36;51.38;99289.44;2102679;85;21305;-84
2022/10/16 11:16:37;;;;;;;9.53;6.95;;;;;;;23.31;50.58;99285.59;2102020;85;20952;-83
2022/10/16 11:19:38;;;;;;;11.22;6.60;;;;;;;23.06;51.96;99282.86;2102592;85;20986;-83
2022/10/16 11:22:38;;;;;;;7.30;6.60;;;;;;;23.13;52.06;99278.20;2102519;85;21320;-83
2022/10/16 11:25:38;;;;;;;11.95;6.65;;;;;;;23.13;51.59;99272.88;2103221;85;21028;-82
2022/10/16 11:28:39;;;;;;;8.60;6.80;;;;;;;22.99;51.96;99273.78;2103176;85;20960;-83
2022/10/16 11:31:39;;;;;;;10.38;7.33;;;;;;;22.79;51.94;99283.23;2102551;85;21348;-83
2022/10/16 11:34:40;;;;;;;11.00;6.60;;;;;;;22.60;52.38;99284.70;2102929;85;20973;-82
2022/10/16 11:37:40;;;;;;;8.70;6.80;;;;;;;22.45;52.61;99283.80;2103089;85;20991;-83
2022/10/16 11:40:41;;;;;;;7.58;6.78;;;;;;;22.39;53.08;99289.29;2103100;85;21293;-83
2022/10/16 11:43:41;;;;;;;7.83;6.90;;;;;;;22.30;53.20;99286.44;2103406;85;20966;-84
2022/10/16 11:46:41;;;;;;;9.70;7.42;;;;;;;22.16;53.44;99288.16;2103279;85;20941;-82
2022/10/16 11:49:42;;;;;;;16.02;8.40;;;;;;;22.10;53.49;99289.66;2102998;85;21024;-83
2022/10/16 11:52:42;;;;;;;9.35;7.83;;;;;;;22.01;53.13;99285.89;2102757;85;20975;-83
2022/10/16 11:55:42;;;;;;;12.93;7.20;;;;;;;21.95;53.59;99286.06;2102872;85;20929;-84
2022/10/16 11:58:43;;;;;;;8.45;7.60;;;;;;;22.03;53.37;99288.09;2103054;85;20968;-84
2022/10/16 12:01:43;;;;;;;8.58;7.50;;;;;;;22.06;53.59;99292.45;2102770;85;21020;-84
2022/10/16 12:04:45;;;;;;;9.98;7.75;;;;;;;22.09;53.73;99292.36;2103342;85;20956;-83
2022/10/16 12:07:44;;;;;;;12.07;6.70;;;;;;;22.15;53.93;99289.08;2118936;82;21005;-83
2022/10/16 12:10:45;;;;;;;8.70;6.95;;;;;;;22.31;53.82;99292.63;2134468;83;21010;-83
2022/10/16 12:13:48;;;;;;;8.35;7.30;;;;;;;22.42;53.85;99289.20;2134378;83;21333;-84
2022/10/16 12:16:45;;;;;;;13.18;5.85;;;;;;;22.48;53.19;99288.56;2134412;83;20966;-84
2022/10/16 12:19:46;;;;;;;12.37;5.80;;;;;;;22.43;52.67;99290.95;2134484;83;20923;-83
2022/10/16 12:22:46;;;;;;;12.35;5.85;;;;;;;22.33;52.37;99294.78;2134319;83;21326;-83
2022/10/16 12:25:47;;;;;;;7.62;6.58;;;;;;;22.28;53.14;99288.73;2134142;83;21005;-83
2022/10/16 12:28:51;;;;;;;14.33;7.45;;;;;;;22.38;53.34;99288.88;2134480;83;21045;-83
2022/10/16 12:31:47;;;;;;;7.80;7.00;;;;;;;22.45;53.34;99291.77;2134197;83;21254;-83
2022/10/16 12:34:48;;;;;;;8.53;6.17;;;;;;;22.29;53.61;99286.02;2134507;83;20962;-81
2022/10/16 12:37:48;;;;;;;5.97;5.45;;;;;;;22.16;54.04;99295.27;2134121;83;21025;-82
2022/10/16 12:40:49;;;;;;;8.88;5.90;;;;;;;22.09;53.71;99296.34;2134419;83;20982;-82
2022/10/16 12:43:49;;;;;;;6.08;5.58;;;;;;;22.03;53.95;99300.50;2134097;83;21342;-82
2022/10/16 12:46:50;;;;;;;6.28;5.67;;;;;;;21.96;53.86;99301.09;2134076;83;20942;-81
2022/10/16 12:49:50;;;;;;;8.90;6.40;;;;;;;21.86;53.74;99307.11;2134131;83;20923;-81
2022/10/16 12:52:50;;;;;;;7.40;6.58;;;;;;;21.74;54.42;99310.55;2133805;83;21434;-81
2022/10/16 12:55:51;;;;;;;9.28;6.47;;;;;;;21.62;55.02;99309.92;2133470;83;20926;-82
2022/10/16 12:58:51;;;;;;;8.78;6.78;;;;;;;21.54;55.33;99311.89;2133712;83;21007;-81
2022/10/16 13:01:51;;;;;;;9.30;6.83;;;;;;;21.44;55.86;99318.34;2133676;83;20954;-81
2022/10/16 13:04:52;;;;;;;10.08;8.13;;;;;;;21.44;55.40;99315.69;2133738;83;20993;-82
2022/10/16 13:07:52;;;;;;;8.50;7.67;;;;;;;21.42;55.23;99317.52;2138484;83;21033;-82
2022/10/16 13:10:52;;;;;;;11.97;8.33;;;;;;;21.39;55.26;99313.61;2143643;83;21021;-81
2022/10/16 13:13:53;;;;;;;8.58;7.10;;;;;;;21.44;55.16;99316.14;2144022;83;20957;-81
2022/10/16 13:16:53;;;;;;;10.23;7.78;;;;;;;21.47;55.14;99316.08;2143889;83;20990;-82
2022/10/16 13:19:54;;;;;;;9.58;7.90;;;;;;;21.59;55.41;99309.13;2144127;83;21381;-82
2022/10/16 13:22:54;;;;;;;13.70;8.48;;;;;;;21.81;54.31;99316.12;2143787;83;21361;-80
2022/10/16 13:25:55;;;;;;;8.90;8.00;;;;;;;21.96;54.56;99312.19;2143614;83;20922;-81
2022/10/16 13:28:55;;;;;;;13.28;8.60;;;;;;;21.96;53.84;99313.05;2143881;83;20930;-81
2022/10/16 13:31:55;;;;;;;9.23;7.72;;;;;;;21.88;54.27;99317.25;2143829;83;21318;-81
2022/10/16 13:34:56;;;;;;;8.90;8.00;;;;;;;21.83;54.00;99307.20;2143753;83;20978;-82
2022/10/16 13:37:56;;;;;;;12.10;8.13;;;;;;;21.62;54.15;99309.05;2143704;83;21040;-82
2022/10/16 13:40:57;;;;;;;11.68;8.18;;;;;;;21.38;54.57;99313.19;2143920;83;21305;-82
2022/10/16 13:43:57;;;;;;;10.28;8.03;;;;;;;21.18;55.13;99314.09;2143940;83;20954;-82
2022/10/16 13:46:57;;;;;;;11.63;8.30;;;;;;;20.95;55.63;99323.45;2144001;83;21018;-82
2022/10/16 13:50:01;;;;;;;13.00;8.35;;;;;;;20.79;56.08;99316.71;2144260;83;20923;-81
2022/10/16 13:53:01;;;;;;;12.07;8.35;;;;;;;20.60;56.72;99318.02;2143929;83;20958;-82
2022/10/16 13:56:01;;;;;;;12.43;8.90;;;;;;;20.47;57.07;99331.11;2144079;83;20962;-81
2022/10/16 13:59:02;;;;;;;10.70;8.30;;;;;;;20.39;57.39;99326.38;2144065;83;20954;-83